Terminal Aerodrome Forecast
Issued by NWS Columbia, SC

Home | Current Version | Previous Version | Text Only | Print | Product List | Glossary On
Versions: 1 2 3 4 5 6 7 8 9 10 11 12 13 14 15 16 17 18 19 20 21 22 23 24 25 26 27 28 29 30
000
FTUS42 KCAE 020850 AAA
TAFCAE
TAF AMD
KCAE 020850Z 0209/0306 24006KT P6SM BKN120
     FM021600 25012G20KT P6SM SCT050 BKN150
     FM022100 24013G22KT P6SM VCTS BKN040CB
     FM030100 22008KT P6SM VCTS BKN040CB=

USA.gov is the U.S. government's official web portal to all federal, state and local government web resources and services.